createdAt,value
2018-03-17T00:00:56.709Z,100911.75
2018-03-17T00:02:00.900Z,100910.59
2018-03-17T00:03:07.389Z,100913.11
2018-03-17T00:04:15.156Z,100902.94
2018-03-17T00:05:21.236Z,100908.71
2018-03-17T00:06:25.802Z,100907.09
2018-03-17T00:07:30.021Z,100912.56
2018-03-17T00:08:36.911Z,100897.34
2018-03-17T00:09:43.450Z,100909.92
2018-03-17T00:10:52.195Z,100895.67
2018-03-17T00:11:56.388Z,100906.56
2018-03-17T00:13:01.365Z,100896.92
2018-03-17T00:14:09.185Z,100908.31
2018-03-17T00:15:17.370Z,100913.73
2018-03-17T00:16:22.861Z,100884.63
2018-03-17T00:17:27.080Z,100907.23
2018-03-17T00:18:31.264Z,100911.47
2018-03-17T00:19:38.601Z,100909.77
2018-03-17T00:20:44.428Z,100906.05
2018-03-17T00:21:49.461Z,100935.59
2018-03-17T00:22:53.834Z,100905.46
2018-03-17T00:23:58.834Z,100919.67
2018-03-17T00:25:03.100Z,100902.77
2018-03-17T00:26:11.196Z,100909.05
2018-03-17T00:27:16.294Z,100909.48
2018-03-17T00:28:21.239Z,100916.94
2018-03-17T00:29:25.416Z,100913.19
2018-03-17T00:30:29.625Z,100911.39
2018-03-17T00:31:33.996Z,100908.36
2018-03-17T00:32:40.075Z,100915.03
2018-03-17T00:33:45.449Z,100910.42
2018-03-17T00:34:51.516Z,100899.86
2018-03-17T00:35:55.809Z,100905.75
2018-03-17T00:36:59.996Z,100910.72
2018-03-17T00:38:05.737Z,100919.95
2018-03-17T00:39:13.395Z,100913.62
2018-03-17T00:40:21.221Z,100916.11
2018-03-17T00:41:25.481Z,100910.19
2018-03-17T00:42:29.652Z,100914.22
2018-03-17T00:43:33.893Z,100918.89
2018-03-17T00:44:40.692Z,100910.86
2018-03-17T00:45:45.816Z,100911.25
2018-03-17T00:46:51.344Z,100913.78
2018-03-17T00:47:55.546Z,100917.59
2018-03-17T00:48:59.832Z,100913.36
2018-03-17T00:50:04.145Z,100903.22
2018-03-17T00:51:11.853Z,100898.11
2018-03-17T00:52:16.526Z,100909.33
2018-03-17T00:53:21.741Z,100907.63
2018-03-17T00:54:26.762Z,100909.73
2018-03-17T00:55:31.763Z,100907.98
2018-03-17T00:56:36.822Z,100908.88
2018-03-17T00:57:43.330Z,100909.34
2018-03-17T00:58:50.273Z,100909.20
2018-03-17T00:59:54.559Z,100907.58
2018-03-17T01:00:58.733Z,100904.17
2018-03-17T01:02:02.933Z,100905.43
2018-03-17T01:03:12.396Z,100904.63
2018-03-17T01:04:18.826Z,100905.09
2018-03-17T01:05:23.630Z,100906.75
2018-03-17T01:06:27.848Z,100912.16
2018-03-17T01:07:32.842Z,100900.50
2018-03-17T01:08:40.186Z,100900.84
2018-03-17T01:09:45.271Z,100906.34
2018-03-17T01:10:50.582Z,100909.54
2018-03-17T01:11:54.808Z,100910.44
2018-03-17T01:12:59.022Z,100907.90
2018-03-17T01:14:03.190Z,100893.48
2018-03-17T01:15:09.833Z,100903.12
2018-03-17T01:16:15.550Z,100911.25
2018-03-17T01:17:21.087Z,100909.17
2018-03-17T01:18:25.271Z,100909.13
2018-03-17T01:19:29.488Z,100910.61
2018-03-17T01:20:33.933Z,100903.95
2018-03-17T01:21:39.682Z,100919.91
2018-03-17T01:22:47.096Z,100912.32
2018-03-17T01:23:51.723Z,100913.66
2018-03-17T01:24:55.944Z,100900.50
2018-03-17T01:26:00.148Z,100904.25
2018-03-17T01:27:05.830Z,100911.80
2018-03-17T01:28:11.337Z,100910.55
2018-03-17T01:29:16.705Z,100904.61
2018-03-17T01:30:21.526Z,100896.98
2018-03-17T01:31:25.727Z,100901.55
2018-03-17T01:32:29.990Z,100902.77
2018-03-17T01:33:34.208Z,100894.80
2018-03-17T01:34:41.763Z,100903.54
2018-03-17T01:35:46.870Z,100901.93
2018-03-17T01:36:51.509Z,100899.81
2018-03-17T01:37:55.707Z,100904.05
2018-03-17T01:38:59.904Z,100903.66
2018-03-17T01:40:04.518Z,100895.77
2018-03-17T01:41:10.914Z,100905.78
2018-03-17T01:42:17.625Z,100899.02
2018-03-17T01:43:22.380Z,100900.27
2018-03-17T01:44:26.586Z,100906.18
2018-03-17T01:45:30.791Z,100886.78
2018-03-17T01:46:36.531Z,100888.94
2018-03-17T01:47:41.874Z,100891.95
2018-03-17T01:48:47.741Z,100892.73
2018-03-17T01:49:52.363Z,100876.80
2018-03-17T01:50:56.580Z,100884.35
2018-03-17T01:52:00.759Z,100890.27
2018-03-17T01:53:05.734Z,100888.55
2018-03-17T01:54:27.897Z,100894.45
2018-03-17T01:55:32.854Z,100892.33
2018-03-17T01:56:40.217Z,100893.17
2018-03-17T01:57:45.067Z,100890.73
2018-03-17T01:58:49.573Z,100893.22
2018-03-17T01:59:53.917Z,100880.94
2018-03-17T02:00:58.142Z,100876.37
2018-03-17T02:02:02.347Z,100879.72
2018-03-17T02:03:07.388Z,100878.80
2018-03-17T02:04:14.502Z,100879.91
2018-03-17T02:05:22.451Z,100879.22
2018-03-17T02:06:26.667Z,100875.27
2018-03-17T02:07:30.872Z,100871.55
2018-03-17T02:08:35.682Z,100876.16
2018-03-17T02:09:42.183Z,100849.03
2018-03-17T02:10:48.347Z,100871.63
2018-03-17T02:11:53.113Z,100868.70
2018-03-17T02:12:57.339Z,100864.84
2018-03-17T02:14:01.520Z,100880.29
2018-03-17T02:15:09.282Z,100861.88
2018-03-17T02:16:14.443Z,100865.25
2018-03-17T02:17:19.259Z,100869.45
2018-03-17T02:18:23.605Z,100865.25
2018-03-17T02:19:27.806Z,100850.56
2018-03-17T02:20:32.003Z,100862.30
2018-03-17T02:21:39.143Z,100859.76
2018-03-17T02:22:44.964Z,100859.80
2018-03-17T02:23:50.846Z,100868.12
2018-03-17T02:24:55.035Z,100854.73
2018-03-17T02:25:59.238Z,100858.90
2018-03-17T02:27:03.443Z,100865.55
2018-03-17T02:28:10.573Z,100867.66
2018-03-17T02:29:16.541Z,100863.11
2018-03-17T02:30:22.685Z,100873.28
2018-03-17T02:31:26.859Z,100866.09
2018-03-17T02:32:31.056Z,100869.88
2018-03-17T02:33:38.062Z,100869.14
2018-03-17T02:34:44.852Z,100871.14
2018-03-17T02:35:50.505Z,100869.53
2018-03-17T02:36:54.759Z,100872.45
2018-03-17T02:37:58.944Z,100853.94
2018-03-17T02:39:03.165Z,100871.95
2018-03-17T02:40:10.243Z,100873.17
2018-03-17T02:41:16.621Z,100875.73
2018-03-17T02:42:22.552Z,100868.08
2018-03-17T02:43:26.749Z,100864.37
2018-03-17T02:44:31.711Z,100865.98
2018-03-17T02:45:39.083Z,100887.32
2018-03-17T02:46:45.209Z,100878.99
2018-03-17T02:47:51.450Z,100881.56
2018-03-17T02:48:55.740Z,100886.30
2018-03-17T02:49:59.919Z,100874.56
2018-03-17T02:51:04.227Z,100875.42
2018-03-17T02:52:10.865Z,100877.84
2018-03-17T02:53:16.297Z,100866.45
2018-03-17T02:54:21.329Z,100888.22
2018-03-17T02:55:26.291Z,100881.92
2018-03-17T02:56:30.482Z,100879.37
2018-03-17T02:57:36.743Z,100868.98
2018-03-17T02:58:42.980Z,100883.16
2018-03-17T02:59:49.696Z,100869.35
2018-03-17T03:00:54.100Z,100879.07
2018-03-17T03:01:58.318Z,100878.67
2018-03-17T03:03:02.498Z,100863.17
2018-03-17T03:04:11.661Z,100876.16
2018-03-17T03:05:17.606Z,100884.06
2018-03-17T03:06:22.459Z,100861.77
2018-03-17T03:07:26.659Z,100865.94
2018-03-17T03:08:30.836Z,100875.59
2018-03-17T03:09:38.398Z,100876.34
2018-03-17T03:10:43.752Z,100886.77
2018-03-17T03:11:48.998Z,100882.86
2018-03-17T03:12:53.412Z,100878.28
2018-03-17T03:13:57.617Z,100888.36
2018-03-17T03:15:02.577Z,100885.13
2018-03-17T03:16:10.241Z,100875.90
2018-03-17T03:17:18.227Z,100884.70
2018-03-17T03:18:23.293Z,100876.66
2018-03-17T03:19:27.476Z,100884.19
2018-03-17T03:20:32.440Z,100876.23
2018-03-17T03:21:40.009Z,100886.64
2018-03-17T03:22:46.407Z,100888.69
2018-03-17T03:23:52.230Z,100887.08
2018-03-17T03:24:56.427Z,100884.46
2018-03-17T03:26:00.605Z,100882.52
2018-03-17T03:27:06.296Z,100875.27
2018-03-17T03:28:13.122Z,100882.41
2018-03-17T03:29:20.272Z,100877.81
2018-03-17T03:30:24.555Z,100889.37
2018-03-17T03:31:28.732Z,100905.14
2018-03-17T03:32:32.926Z,100889.34
2018-03-17T03:33:40.100Z,100885.63
2018-03-17T03:34:47.925Z,100882.26
2018-03-17T03:35:52.480Z,100885.16
2018-03-17T03:36:56.662Z,100875.86
2018-03-17T03:38:01.649Z,100881.02
2018-03-17T03:39:06.999Z,100884.27
2018-03-17T03:40:13.645Z,100892.31
2018-03-17T03:41:19.525Z,100882.66
2018-03-17T03:42:24.464Z,100886.86
2018-03-17T03:43:29.410Z,100885.25
2018-03-17T03:44:33.611Z,100888.56
2018-03-17T03:45:41.576Z,100887.05
2018-03-17T03:46:47.814Z,100889.89
2018-03-17T03:47:52.503Z,100884.98
2018-03-17T03:48:56.719Z,100890.66
2018-03-17T03:50:00.920Z,100887.39
2018-03-17T03:51:07.377Z,100889.96
2018-03-17T03:52:13.206Z,100881.21
2018-03-17T03:53:19.208Z,100889.06
2018-03-17T03:54:23.864Z,100892.05
2018-03-17T03:55:28.042Z,100881.59
2018-03-17T03:56:32.999Z,100885.35
2018-03-17T03:57:38.812Z,100879.95
2018-03-17T03:58:44.476Z,100885.40
2018-03-17T03:59:50.678Z,100880.25
2018-03-17T04:00:55.659Z,100887.61
2018-03-17T04:01:59.899Z,100887.61
2018-03-17T04:03:04.470Z,100890.19
2018-03-17T04:04:11.104Z,100892.66
2018-03-17T04:05:15.950Z,100882.70
2018-03-17T04:06:21.402Z,100891.42
2018-03-17T04:07:25.671Z,100878.88
2018-03-17T04:08:29.878Z,100882.11
2018-03-17T04:09:36.402Z,100885.45
2018-03-17T04:10:42.840Z,100888.36
2018-03-17T04:11:49.368Z,100882.11
2018-03-17T04:12:53.625Z,100877.55
2018-03-17T04:13:57.819Z,100882.13
2018-03-17T04:15:02.856Z,100886.38
2018-03-17T04:16:09.155Z,100883.02
2018-03-17T04:17:14.853Z,100880.97
2018-03-17T04:18:20.771Z,100884.64
2018-03-17T04:19:25.776Z,100886.05
2018-03-17T04:20:30.059Z,100885.75
2018-03-17T04:21:35.274Z,100884.13
2018-03-17T04:22:43.880Z,100883.06
2018-03-17T04:23:48.797Z,100886.02
2018-03-17T04:24:53.259Z,100887.64
2018-03-17T04:25:57.500Z,100890.19
2018-03-17T04:27:01.704Z,100902.77
2018-03-17T04:28:07.338Z,100890.52
2018-03-17T04:29:13.792Z,100888.78
2018-03-17T04:30:19.674Z,100890.87
2018-03-17T04:31:24.027Z,100890.58
2018-03-17T04:32:28.975Z,100891.80
2018-03-17T04:33:33.167Z,100890.92
2018-03-17T04:34:41.034Z,100879.09
2018-03-17T04:35:47.252Z,100888.66
2018-03-17T04:36:52.723Z,100898.14
2018-03-17T04:37:56.907Z,100903.75
2018-03-17T04:39:01.091Z,100892.92
2018-03-17T04:40:19.894Z,100896.62
2018-03-17T04:41:24.173Z,100904.93
2018-03-17T04:42:29.266Z,100901.16
2018-03-17T04:43:33.451Z,100894.05
2018-03-17T04:44:44.223Z,100899.00
2018-03-17T04:45:49.754Z,100894.37
2018-03-17T04:46:53.924Z,100899.77
2018-03-17T04:47:58.896Z,100894.28
2018-03-17T04:49:03.129Z,100897.55
2018-03-17T04:50:10.746Z,100890.39
2018-03-17T04:51:17.163Z,100895.47
2018-03-17T04:52:22.949Z,100905.90
2018-03-17T04:53:27.916Z,100898.26
2018-03-17T04:54:32.156Z,100901.13
2018-03-17T04:55:37.328Z,100896.86
2018-03-17T04:56:42.527Z,100899.72
2018-03-17T04:57:48.300Z,100908.91
2018-03-17T04:58:52.578Z,100893.91
2018-03-17T04:59:56.879Z,100897.63
2018-03-17T05:01:01.791Z,100901.50
2018-03-17T05:02:08.179Z,100909.02
2018-03-17T05:03:14.129Z,100901.93
2018-03-17T05:04:20.128Z,100903.20
2018-03-17T05:05:24.374Z,100902.77
2018-03-17T05:06:28.561Z,100901.50
2018-03-17T05:07:33.539Z,100901.17
2018-03-17T05:08:40.547Z,100906.15
2018-03-17T05:09:46.875Z,100901.93
2018-03-17T05:10:52.254Z,100906.77
2018-03-17T05:11:56.430Z,100901.74
2018-03-17T05:13:00.610Z,100901.81
2018-03-17T05:14:05.249Z,100897.06
2018-03-17T05:15:13.797Z,100898.39
2018-03-17T05:16:19.464Z,100901.75
2018-03-17T05:17:23.728Z,100899.35
2018-03-17T05:18:27.917Z,100916.80
2018-03-17T05:19:32.109Z,100904.58
2018-03-17T05:20:40.792Z,100901.95
2018-03-17T05:21:45.655Z,100897.00
2018-03-17T05:22:51.262Z,100893.63
2018-03-17T05:23:55.452Z,100889.48
2018-03-17T05:24:59.642Z,100898.69
2018-03-17T05:26:03.890Z,100889.16
2018-03-17T05:27:15.616Z,100910.08
2018-03-17T05:28:20.883Z,100891.30
2018-03-17T05:29:25.075Z,100891.64
2018-03-17T05:30:29.247Z,100899.54
2018-03-17T05:31:33.438Z,100887.78
2018-03-17T05:32:40.089Z,100887.47
2018-03-17T05:33:45.319Z,100888.01
2018-03-17T05:34:51.045Z,100882.97
2018-03-17T05:35:55.339Z,100893.78
2018-03-17T05:37:00.283Z,100895.47
2018-03-17T05:38:05.530Z,100896.37
2018-03-17T05:39:13.560Z,100892.55
2018-03-17T05:40:18.941Z,100884.19
2018-03-17T05:41:23.237Z,100909.58
2018-03-17T05:42:28.277Z,100896.86
2018-03-17T05:43:33.229Z,100893.52
2018-03-17T05:44:40.595Z,100879.20
2018-03-17T05:45:48.532Z,100897.25
2018-03-17T05:46:52.949Z,100897.55
2018-03-17T05:47:57.171Z,100895.45
2018-03-17T05:49:01.367Z,100899.27
2018-03-17T05:50:07.456Z,100897.82
2018-03-17T05:51:14.529Z,100898.30
2018-03-17T05:52:20.389Z,100913.66
2018-03-17T05:53:24.660Z,100893.52
2018-03-17T05:54:28.913Z,100904.92
2018-03-17T05:55:33.118Z,100898.37
2018-03-17T05:56:40.137Z,100899.62
2018-03-17T05:57:45.875Z,100901.95
2018-03-17T05:58:51.589Z,100893.92
2018-03-17T05:59:55.793Z,100898.05
2018-03-17T06:00:59.986Z,100889.55
2018-03-17T06:02:04.517Z,100887.73
2018-03-17T06:03:11.635Z,100894.97
2018-03-17T06:04:18.296Z,100901.60
2018-03-17T06:05:24.235Z,100891.49
2018-03-17T06:06:29.187Z,100908.19
2018-03-17T06:07:34.499Z,100892.95
2018-03-17T06:08:41.182Z,100898.21
2018-03-17T06:09:46.193Z,100912.95
2018-03-17T06:10:51.372Z,100910.00
2018-03-17T06:11:55.618Z,100916.73
2018-03-17T06:12:59.817Z,100916.78
2018-03-17T06:14:04.168Z,100913.88
2018-03-17T06:15:11.605Z,100900.89
2018-03-17T06:16:16.826Z,100913.50
2018-03-17T06:17:22.622Z,100908.58
2018-03-17T06:18:27.566Z,100906.44
2018-03-17T06:19:31.743Z,100909.76
2018-03-17T06:20:36.428Z,100907.16
2018-03-17T06:21:41.859Z,100897.47
2018-03-17T06:22:47.144Z,100900.36
2018-03-17T06:23:51.396Z,100907.85
2018-03-17T06:24:56.399Z,100907.20
2018-03-17T06:26:00.601Z,100910.02
2018-03-17T06:27:05.602Z,100918.03
2018-03-17T06:28:14.268Z,100902.57
2018-03-17T06:29:20.399Z,100902.80
2018-03-17T06:30:24.588Z,100903.09
2018-03-17T06:31:28.906Z,100903.11
2018-03-17T06:32:33.112Z,100907.02
2018-03-17T06:33:39.762Z,100894.86
2018-03-17T06:34:46.803Z,100907.34
2018-03-17T06:35:51.407Z,100921.23
2018-03-17T06:36:55.610Z,100907.52
2018-03-17T06:37:59.872Z,100905.08
2018-03-17T06:39:05.587Z,100912.19
2018-03-17T06:40:12.342Z,100915.27
2018-03-17T06:41:17.163Z,100915.37
2018-03-17T06:42:21.654Z,100910.44
2018-03-17T06:43:25.831Z,100904.92
2018-03-17T06:44:30.875Z,100948.81
2018-03-17T06:45:37.781Z,100894.45
2018-03-17T06:46:42.570Z,100928.87
2018-03-17T06:47:50.070Z,100901.61
2018-03-17T06:48:54.259Z,100906.09
2018-03-17T06:49:59.236Z,100917.30
2018-03-17T06:51:08.480Z,100908.23
2018-03-17T06:52:22.384Z,100922.58
2018-03-17T06:53:26.603Z,100908.31
2018-03-17T06:54:30.806Z,100907.52
2018-03-17T06:55:36.095Z,100905.23
2018-03-17T06:56:43.677Z,100900.29
2018-03-17T06:57:48.829Z,100911.09
2018-03-17T06:58:54.019Z,100921.05
2018-03-17T06:59:58.228Z,100906.39
2018-03-17T07:01:02.556Z,100918.56
2018-03-17T07:02:15.174Z,100916.25
2018-03-17T07:03:20.466Z,100922.61
2018-03-17T07:04:25.837Z,100919.96
2018-03-17T07:05:31.264Z,100910.80
2018-03-17T07:06:38.855Z,100931.37
2018-03-17T07:07:54.233Z,100916.49
2018-03-17T07:09:00.513Z,100912.81
2018-03-17T07:10:05.982Z,100902.30
2018-03-17T07:11:17.589Z,100926.91
2018-03-17T07:12:24.066Z,100935.36
2018-03-17T07:13:28.330Z,100912.80
2018-03-17T07:14:32.561Z,100918.20
2018-03-17T07:15:39.732Z,100907.87
2018-03-17T07:16:47.901Z,100909.47
2018-03-17T07:17:55.985Z,100905.80
2018-03-17T07:19:01.068Z,100911.45
2018-03-17T07:20:06.481Z,100910.17
2018-03-17T07:21:13.546Z,100922.83
2018-03-17T07:22:20.121Z,100928.30
2018-03-17T07:23:24.567Z,100924.68
2018-03-17T07:24:28.924Z,100917.59
2018-03-17T07:25:33.873Z,100908.37
2018-03-17T07:26:41.944Z,100920.41
2018-03-17T07:27:48.836Z,100937.14
2018-03-17T07:28:54.494Z,100931.10
2018-03-17T07:29:58.714Z,100916.54
2018-03-17T07:31:02.910Z,100922.78
2018-03-17T07:32:19.950Z,100936.17
2018-03-17T07:33:24.240Z,100935.52
2018-03-17T07:34:28.443Z,100936.19
2018-03-17T07:35:32.652Z,100922.14
2018-03-17T07:36:44.826Z,100921.87
2018-03-17T07:37:53.075Z,100927.70
2018-03-17T07:38:57.279Z,100917.70
2018-03-17T07:40:01.488Z,100919.87
2018-03-17T07:41:07.757Z,100915.33
2018-03-17T07:42:13.443Z,100929.59
2018-03-17T07:43:18.746Z,100911.32
2018-03-17T07:44:23.172Z,100915.18
2018-03-17T07:45:27.355Z,100915.01
2018-03-17T07:46:31.593Z,100913.35
2018-03-17T07:47:38.849Z,100950.59
2018-03-17T07:48:43.493Z,100916.73
2018-03-17T07:49:47.971Z,100929.66
2018-03-17T07:50:53.103Z,100918.78
2018-03-17T07:51:58.099Z,100909.06
2018-03-17T07:53:02.294Z,100931.46
2018-03-17T07:54:07.862Z,100899.34
2018-03-17T07:55:14.835Z,100917.64
2018-03-17T07:56:19.446Z,100907.11
2018-03-17T07:57:23.752Z,100919.57
2018-03-17T07:58:27.948Z,100919.09
2018-03-17T07:59:32.162Z,100921.98
2018-03-17T08:00:36.523Z,100915.34
2018-03-17T08:01:40.880Z,100912.53
2018-03-17T08:02:45.482Z,100921.53
2018-03-17T08:03:49.677Z,100908.14
2018-03-17T08:04:53.952Z,100918.11
2018-03-17T08:05:58.321Z,100920.76
2018-03-17T08:07:02.566Z,100919.84
2018-03-17T08:08:07.308Z,100928.56
2018-03-17T08:09:13.006Z,100920.36
2018-03-17T08:10:17.424Z,100913.83
2018-03-17T08:11:21.614Z,100921.89
2018-03-17T08:12:25.928Z,100927.52
2018-03-17T08:13:30.123Z,100920.88
2018-03-17T08:14:35.645Z,100921.96
2018-03-17T08:15:40.418Z,100935.78
2018-03-17T08:16:44.932Z,100931.68
2018-03-17T08:17:49.692Z,100930.97
2018-03-17T08:18:53.885Z,100925.58
2018-03-17T08:19:58.096Z,100932.72
2018-03-17T08:21:02.328Z,100918.13
2018-03-17T08:22:07.969Z,100934.44
2018-03-17T08:23:13.167Z,100930.11
2018-03-17T08:24:18.834Z,100912.14
2018-03-17T08:25:23.154Z,100945.53
2018-03-17T08:26:27.370Z,100929.01
2018-03-17T08:27:31.642Z,100940.14
2018-03-17T08:28:37.074Z,100935.98
2018-03-17T08:29:43.242Z,100934.63
2018-03-17T08:30:47.600Z,100950.95
2018-03-17T08:31:51.979Z,100937.88
2018-03-17T08:32:56.187Z,100925.41
2018-03-17T08:34:00.390Z,100934.36
2018-03-17T08:35:04.735Z,100933.66
2018-03-17T08:36:09.138Z,100932.11
2018-03-17T08:37:14.233Z,100934.94
2018-03-17T08:38:19.519Z,100933.81
2018-03-17T08:39:23.861Z,100922.08
2018-03-17T08:40:28.905Z,100938.03
2018-03-17T08:41:33.126Z,100938.87
2018-03-17T08:42:38.343Z,100941.79
2018-03-17T08:43:42.910Z,100926.45
2018-03-17T08:44:47.300Z,100938.23
2018-03-17T08:45:51.508Z,100937.20
2018-03-17T08:46:56.641Z,100939.00
2018-03-17T08:48:00.843Z,100918.31
2018-03-17T08:49:05.730Z,100937.31
2018-03-17T08:50:11.782Z,100934.97
2018-03-17T08:51:18.146Z,100922.19
2018-03-17T08:52:22.630Z,100931.39
2018-03-17T08:53:26.850Z,100935.92
2018-03-17T08:54:31.034Z,100937.77
2018-03-17T08:55:36.965Z,100933.83
2018-03-17T08:56:43.552Z,100928.68
2018-03-17T08:57:49.877Z,100923.77
2018-03-17T08:58:54.111Z,100933.38
2018-03-17T08:59:58.342Z,100920.30
2018-03-17T09:01:02.539Z,100919.81
2018-03-17T09:02:07.955Z,100940.58
2018-03-17T09:03:14.330Z,100918.05
2018-03-17T09:04:20.792Z,100922.53
2018-03-17T09:05:25.765Z,100925.16
2018-03-17T09:06:29.962Z,100920.30
2018-03-17T09:07:35.250Z,100920.59
2018-03-17T09:08:46.395Z,100923.30
2018-03-17T09:09:51.055Z,100930.75
2018-03-17T09:10:56.017Z,100925.41
2018-03-17T09:12:00.396Z,100921.13
2018-03-17T09:13:05.804Z,100924.41
2018-03-17T09:14:14.638Z,100911.41
2018-03-17T09:15:20.125Z,100936.33
2018-03-17T09:16:24.316Z,100926.95
2018-03-17T09:17:29.311Z,100937.49
2018-03-17T09:18:34.444Z,100927.22
2018-03-17T09:19:40.314Z,100906.91
2018-03-17T09:20:47.152Z,100918.02
2018-03-17T09:21:52.410Z,100929.08
2018-03-17T09:22:56.643Z,100921.99
2018-03-17T09:24:01.592Z,100930.78
2018-03-17T09:25:08.169Z,100922.95
2018-03-17T09:26:14.735Z,100928.02
2018-03-17T09:27:21.088Z,100927.66
2018-03-17T09:28:25.322Z,100914.71
2018-03-17T09:29:29.529Z,100940.03
2018-03-17T09:30:33.906Z,100922.22
2018-03-17T09:31:50.887Z,100917.56
2018-03-17T09:32:55.378Z,100920.64
2018-03-17T09:33:59.574Z,100921.50
2018-03-17T09:35:03.856Z,100916.34
2018-03-17T09:36:10.509Z,100929.42
2018-03-17T09:37:18.103Z,100923.27
2018-03-17T09:38:23.522Z,100919.95
2018-03-17T09:39:27.734Z,100917.56
2018-03-17T09:40:33.424Z,100921.89
2018-03-17T09:41:39.900Z,100923.86
2018-03-17T09:42:49.233Z,100913.66
2018-03-17T09:43:54.340Z,100910.46
2018-03-17T09:44:58.528Z,100913.26
2018-03-17T09:46:02.879Z,100919.00
2018-03-17T09:47:10.070Z,100915.29
2018-03-17T09:48:16.503Z,100925.12
2018-03-17T09:49:22.274Z,100917.40
2018-03-17T09:50:26.508Z,100904.14
2018-03-17T09:51:30.702Z,100897.75
2018-03-17T09:52:38.647Z,100911.61
2018-03-17T09:53:45.927Z,100904.29
2018-03-17T09:54:51.437Z,100921.37
2018-03-17T09:55:55.636Z,100909.55
2018-03-17T09:56:59.825Z,100939.83
2018-03-17T09:58:05.420Z,100905.03
2018-03-17T09:59:14.226Z,100914.85
2018-03-17T10:00:21.126Z,100912.58
2018-03-17T10:01:25.335Z,100896.20
2018-03-17T10:02:29.544Z,100893.63
2018-03-17T10:03:33.807Z,100911.26
2018-03-17T10:04:45.355Z,100887.34
2018-03-17T10:05:51.223Z,100909.94
2018-03-17T10:06:56.250Z,100917.17
2018-03-17T10:08:01.214Z,100908.48
2018-03-17T10:09:05.858Z,100902.67
2018-03-17T10:10:12.159Z,100908.34
2018-03-17T10:11:18.285Z,100889.48
2018-03-17T10:12:23.063Z,100905.09
2018-03-17T10:13:27.249Z,100898.83
2018-03-17T10:14:32.217Z,100904.95
2018-03-17T10:15:38.282Z,100915.19
2018-03-17T10:16:46.734Z,100898.41
2018-03-17T10:17:53.224Z,100911.10
2018-03-17T10:18:57.446Z,100919.10
2018-03-17T10:20:01.706Z,100921.07
2018-03-17T10:21:08.034Z,100912.94
2018-03-17T10:22:15.423Z,100905.55
2018-03-17T10:23:22.760Z,100908.77
2018-03-17T10:24:27.714Z,100902.17
2018-03-17T10:25:31.966Z,100898.27
2018-03-17T10:26:37.977Z,100910.75
2018-03-17T10:27:47.174Z,100894.03
2018-03-17T10:28:51.676Z,100901.51
2018-03-17T10:29:57.396Z,100904.56
2018-03-17T10:31:01.681Z,100903.44
2018-03-17T10:32:07.219Z,100899.41
2018-03-17T10:33:14.166Z,100900.95
2018-03-17T10:34:18.916Z,100900.71
2018-03-17T10:35:23.398Z,100894.47
2018-03-17T10:36:27.614Z,100899.50
2018-03-17T10:37:31.916Z,100907.33
2018-03-17T10:38:37.819Z,100900.41
2018-03-17T10:39:47.428Z,100893.83
2018-03-17T10:40:52.120Z,100891.44
2018-03-17T10:41:56.355Z,100879.12
2018-03-17T10:43:02.087Z,100886.87
2018-03-17T10:44:08.217Z,100880.84
2018-03-17T10:45:17.011Z,100881.05
2018-03-17T10:46:21.598Z,100893.12
2018-03-17T10:47:26.584Z,100875.45
2018-03-17T10:48:30.786Z,100876.32
2018-03-17T10:49:37.717Z,100880.36
2018-03-17T10:50:43.247Z,100883.21
2018-03-17T10:51:48.516Z,100884.78
2018-03-17T10:52:53.932Z,100891.61
2018-03-17T10:53:58.910Z,100878.78
2018-03-17T10:55:03.130Z,100868.09
2018-03-17T10:56:10.471Z,100883.59
2018-03-17T10:57:16.102Z,100881.38
2018-03-17T10:58:21.659Z,100892.49
2018-03-17T10:59:25.885Z,100875.23
2018-03-17T11:00:30.116Z,100890.52
2018-03-17T11:01:40.518Z,100892.02
2018-03-17T11:02:45.935Z,100869.73
2018-03-17T11:03:52.379Z,100886.53
2018-03-17T11:04:56.598Z,100866.14
2018-03-17T11:06:00.860Z,100880.13
2018-03-17T11:07:08.694Z,100869.34
2018-03-17T11:08:13.502Z,100877.84
2018-03-17T11:09:19.680Z,100874.63
2018-03-17T11:10:24.353Z,100879.74
2018-03-17T11:11:29.337Z,100884.98
2018-03-17T11:12:33.728Z,100871.34
2018-03-17T11:13:41.296Z,100870.61
2018-03-17T11:14:47.552Z,100865.38
2018-03-17T11:15:52.439Z,100871.00
2018-03-17T11:16:56.648Z,100862.95
2018-03-17T11:18:00.889Z,100854.47
2018-03-17T11:19:08.747Z,100881.27
2018-03-17T11:20:16.615Z,100859.14
2018-03-17T11:21:21.195Z,100863.02
2018-03-17T11:22:26.208Z,100856.84
2018-03-17T11:23:30.402Z,100861.16
2018-03-17T11:24:34.834Z,100854.98
2018-03-17T11:25:41.900Z,100853.22
2018-03-17T11:26:47.798Z,100848.22
2018-03-17T11:27:58.083Z,100854.59
2018-03-17T11:29:02.261Z,100846.17
2018-03-17T11:30:07.286Z,100844.69
2018-03-17T11:31:13.603Z,100858.62
2018-03-17T11:32:19.754Z,100846.54
2018-03-17T11:33:24.198Z,100857.66
2018-03-17T11:34:28.389Z,100856.05
2018-03-17T11:35:32.567Z,100851.10
2018-03-17T11:36:36.957Z,100843.05
2018-03-17T11:37:41.248Z,100867.83
2018-03-17T11:38:45.562Z,100850.25
2018-03-17T11:39:49.748Z,100857.98
2018-03-17T11:40:53.949Z,100860.75
2018-03-17T11:41:58.132Z,100850.52
2018-03-17T11:43:10.929Z,100857.27
2018-03-17T11:44:15.462Z,100864.13
2018-03-17T11:45:19.996Z,100850.47
2018-03-17T11:46:24.198Z,100835.94
2018-03-17T11:47:28.442Z,100856.60
2018-03-17T11:48:32.633Z,100860.95
2018-03-17T11:49:37.922Z,100858.25
2018-03-17T11:50:42.282Z,100854.86
2018-03-17T11:51:48.108Z,100855.31
2018-03-17T11:52:52.913Z,100857.85
2018-03-17T11:53:57.129Z,100858.03
2018-03-17T11:55:01.357Z,100835.94
2018-03-17T11:56:11.566Z,100856.04
2018-03-17T11:57:16.624Z,100852.39
2018-03-17T11:58:20.805Z,100866.52
2018-03-17T11:59:25.766Z,100850.92
2018-03-17T12:00:29.996Z,100847.00
2018-03-17T12:01:34.206Z,100834.34
2018-03-17T12:02:38.401Z,100853.38
2018-03-17T12:03:43.183Z,100832.74
2018-03-17T12:04:48.164Z,100832.17
2018-03-17T12:05:53.271Z,100842.75
2018-03-17T12:06:57.451Z,100823.36
2018-03-17T12:08:01.643Z,100831.14
2018-03-17T12:09:09.277Z,100824.44
2018-03-17T12:10:16.026Z,100820.28
2018-03-17T12:11:21.015Z,100809.47
2018-03-17T12:12:25.748Z,100828.38
2018-03-17T12:13:29.956Z,100838.98
2018-03-17T12:14:34.264Z,100824.29
2018-03-17T12:15:41.204Z,100820.57
2018-03-17T12:16:47.359Z,100812.09
2018-03-17T12:17:51.673Z,100821.84
2018-03-17T12:18:55.914Z,100818.55
2018-03-17T12:20:00.102Z,100827.56
2018-03-17T12:21:04.539Z,100822.17
2018-03-17T12:22:10.685Z,100821.31
2018-03-17T12:23:15.048Z,100816.31
2018-03-17T12:24:19.239Z,100819.23
2018-03-17T12:25:23.440Z,100807.27
2018-03-17T12:26:27.609Z,100832.29
2018-03-17T12:27:31.845Z,100798.30